Details From UDYZ - Zvartnots
To LOWI - Innsbruck Kranebitten
Flight Number -
Tags Decoded
Created
Modified
Stats Distance 1,472 nm / 2,727 km
Max Altitude 0 ft / 0 m
Waypoints 5
Social Downloads 1
Likes 0
Share VATSIM

Download

Looking for another format? Having issues loading an existing format? Contact us
Advertisement - Login to hide

Notes

Decoded

Route

UDYZ MAPUT TLC NEPOT OEV12

ID Type Via Altitude Latitude Longitude Leg Dist Tot Dist Heading (true) Name
O UDYZ APT - 0 ft / 0 m 40.14715˚ 44.37329˚ - 0 nm - -
MAPUT FIX - 0 ft / 0 m 43.56638˚ 34.39514˚ 490 nm 490 nm 298° / 291° -
TLC NDB - 0 ft / 0 m 44.99257˚ 28.73636˚ 257 nm 748 nm 291° / 287° TULCEA NDB
NEPOT FIX - 0 ft / 0 m 45.96030˚ 23.08808˚ 244 nm 993 nm 286° / 282° -
O OEV12 FIX - 0 ft / 0 m 47.31387˚ 11.63785˚ 478 nm 1472 nm 284° / 276° -

Altitude Profile

Advertisement - Login to hide

Weather


0- 5 10 15 20 25 30 35+ Temperature / ° C

Clouds and Precipitation
Forecast for 2017-12-15 06:00 UTC. Updated 2 hours ago

Ground ~20,000 ft ~40,000 ft Winds

UDYZ

Details ICAO UDYZ (EVN)
Name ZVARTNOTS
Region Armenia
Timezone Asia/Yerevan (UTC+4.0)
Stats Elevation 2,838 ft / 865 m (AMSL)
Location 40.147271° 44.395880°
Runways 1
Magnetic Variation 6.201° E

METAR

UDYZ 150430Z 00000KT 2000 R09/2000N BR NSC M06/M08 Q1022 R09/000070 NOSIG

Decode

TAF

TAF UDYZ 141707Z 1418/1518 VRB04KT 2000 BR NSC TEMPO 1421/1506 0800 FZFG VV003

Decode

Departure Runways

ID Width Length Bearing (true) Bearing (mag) Surface Threshold Offset Overrun Length
09 184 ft / 56 m 12,601 ft / 3,841 m 89.59° 83.39° Asphalt 0 ft / 0 m 0 ft / 0 m
27 184 ft / 56 m 12,601 ft / 3,841 m 269.62° 263.42° Asphalt 0 ft / 0 m 0 ft / 0 m

LOWI

Details ICAO LOWI (INN)
Name Innsbruck Kranebitten
Region Austria
Timezone Europe/Vienna (UTC+1.0)
Stats Elevation 1,906 ft / 581 m (AMSL)
Location 47.260226° 11.343967°
Runways 1
Magnetic Variation 3.019° E

METAR

LOWI 150420Z AUTO VRB03KT 7000 -RASN FEW002 SCT003 BKN009 00/00 Q0998

Decode

TAF

TAF TAF LOWI 142315Z 1500/1524 27006KT 6000 SCT005 SCT012 OVC020 TX04/1512Z TNM03/1600Z TEMPO 1500/1505 27015G25KT 0800 SHSN VV004 TEMPO 1505/1507 BKN005 BECMG 1507/1509 9999 FEW030

Decode

Destination Runways

ID Width Length Bearing (true) Bearing (mag) Surface Threshold Offset Overrun Length
08 148 ft / 45 m 6,545 ft / 1,995 m 81.02° 78.00° Asphalt 338 ft / 103 m 0 ft / 0 m
26 148 ft / 45 m 6,545 ft / 1,995 m 261.04° 258.02° Asphalt 0 ft / 0 m 0 ft / 0 m

Approach Navaids

Runway Type Ident Frequency Range Bearing (true) Bearing (mag) Slope Elevation
26 Localiser OEV 111.10 MHz 27 nm / 50 km 256.00° 252.98° - 1,906 ft / 581 m (AMSL)
26 Localiser OEJ 109.70 MHz 30 nm / 56 km 69.00° 65.98° - 1,906 ft / 581 m (AMSL)
26 Glidescope OEV 111.10 MHz 18 nm / 33 km 256.00° 252.98° 3.80° 1,911 ft / 582 m (AMSL)
26 DME OEJ 109.70 MHz 30 nm / 56 km - - - 1,906 ft / 581 m (AMSL)
26 DME OEV 111.10 MHz 27 nm / 50 km - - - 1,911 ft / 582 m (AMSL)

Popular Alternatives